Time;durP1;ratioP1;P1;durP2;ratioP2;P2;SDS_P1;SDS_P2;PMS_P1;PMS_P2;Temp;Humidity;BMP_temperature;BMP_pressure;BME280_temperature;BME280_humidity;BME280_pressure;Samples;Min_cycle;Max_cycle;Signal;HPM_P1;HPM_P2
2022/12/16 00:01:04;;;;;;;2.95;0.55;;;16.60;34.10;;;;;;5006383;28;20038;-48
2022/12/16 00:03:33;;;;;;;1.85;0.70;;;16.60;34.20;;;;;;4988946;28;20054;-48
2022/12/16 00:06:02;;;;;;;1.17;0.68;;;16.60;34.20;;;;;;5006848;28;20517;-47
2022/12/16 00:08:31;;;;;;;2.42;1.15;;;16.60;34.20;;;;;;5006562;28;20060;-46
2022/12/16 00:10:59;;;;;;;2.45;0.90;;;16.60;34.20;;;;;;5006531;28;20482;-48
2022/12/16 00:13:26;;;;;;;1.35;0.82;;;16.60;34.20;;;;;;5000334;28;20099;-47
2022/12/16 00:15:53;;;;;;;2.20;0.68;;;16.50;34.20;;;;;;4987065;28;20069;-46
2022/12/16 00:18:21;;;;;;;1.50;0.65;;;16.50;34.20;;;;;;4989521;28;20065;-47
2022/12/16 00:20:52;;;;;;;3.63;1.40;;;16.50;34.20;;;;;;5006379;28;20090;-46
2022/12/16 00:23:19;;;;;;;1.05;0.95;;;16.50;34.20;;;;;;5006529;28;20053;-47
2022/12/16 00:25:46;;;;;;;1.83;1.13;;;16.40;34.20;;;;;;5006449;28;20041;-46
2022/12/16 00:28:15;;;;;;;2.17;1.08;;;16.50;34.20;;;;;;5006474;28;20428;-46
2022/12/16 00:30:42;;;;;;;2.97;0.80;;;16.50;34.20;;;;;;4988626;28;20049;-51
2022/12/16 00:33:09;;;;;;;1.20;0.50;;;16.40;34.20;;;;;;5001638;28;20042;-49
2022/12/16 00:35:37;;;;;;;1.88;0.82;;;16.40;34.20;;;;;;4986968;28;20521;-47
2022/12/16 00:38:05;;;;;;;2.50;1.50;;;16.40;34.20;;;;;;4986471;28;20052;-47
2022/12/16 00:40:32;;;;;;;2.55;1.30;;;16.40;34.20;;;;;;4986486;28;20042;-46
2022/12/16 00:42:59;;;;;;;4.10;1.15;;;16.40;34.30;;;;;;4986723;28;20128;-46
2022/12/16 00:45:26;;;;;;;2.42;0.65;;;16.40;34.30;;;;;;4986703;28;20845;-46
2022/12/16 00:47:53;;;;;;;2.15;0.70;;;16.40;34.30;;;;;;4986271;28;20054;-46
2022/12/16 00:50:20;;;;;;;1.27;0.50;;;16.30;34.30;;;;;;4994800;28;20129;-46
2022/12/16 00:52:49;;;;;;;1.15;0.35;;;16.40;34.30;;;;;;5006004;28;20058;-47
2022/12/16 00:55:18;;;;;;;4.60;1.02;;;16.40;34.40;;;;;;5005987;28;20114;-47
2022/12/16 00:57:45;;;;;;;1.67;0.70;;;16.40;34.40;;;;;;5006115;28;20049;-48
2022/12/16 01:00:14;;;;;;;1.35;0.70;;;16.30;34.30;;;;;;5005800;28;20045;-47
2022/12/16 01:02:42;;;;;;;2.83;1.02;;;16.30;34.40;;;;;;5005690;28;20057;-47
2022/12/16 01:05:11;;;;;;;1.88;0.95;;;16.30;34.40;;;;;;5006042;28;20124;-46
2022/12/16 01:07:38;;;;;;;0.82;0.60;;;16.30;34.40;;;;;;5005796;28;20462;-47
2022/12/16 01:10:07;;;;;;;2.58;1.15;;;16.30;34.40;;;;;;5005795;28;20665;-48
2022/12/16 01:12:36;;;;;;;1.38;1.23;;;16.30;34.40;;;;;;5005631;28;20053;-46
2022/12/16 01:15:06;;;;;;;1.73;0.77;;;16.30;34.40;;;;;;5005456;28;20456;-45
2022/12/16 01:17:34;;;;;;;1.38;1.02;;;16.30;34.40;;;;;;4987987;28;20106;-45
2022/12/16 01:20:02;;;;;;;1.90;0.88;;;16.20;34.40;;;;;;4987706;28;20049;-45
2022/12/16 01:22:30;;;;;;;4.75;0.88;;;16.20;34.40;;;;;;4996375;28;20261;-46
2022/12/16 01:24:58;;;;;;;1.48;0.93;;;16.20;34.40;;;;;;4988227;28;20051;-48
2022/12/16 01:27:25;;;;;;;1.33;0.88;;;16.20;34.40;;;;;;5012048;28;20523;-46
2022/12/16 01:29:54;;;;;;;3.42;0.80;;;16.20;34.50;;;;;;5005460;28;20080;-47
2022/12/16 01:32:21;;;;;;;2.67;1.95;;;16.20;34.40;;;;;;5005460;28;20133;-47
2022/12/16 01:34:50;;;;;;;2.67;1.08;;;16.20;34.40;;;;;;5005339;28;20038;-47
2022/12/16 01:37:17;;;;;;;2.90;1.30;;;16.20;34.50;;;;;;5005498;28;20128;-47
2022/12/16 01:39:44;;;;;;;4.55;1.10;;;16.20;34.50;;;;;;5005305;28;20042;-45
2022/12/16 01:42:12;;;;;;;2.72;0.98;;;16.20;34.50;;;;;;5005275;28;20042;-47
2022/12/16 01:44:43;;;;;;;0.82;0.60;;;16.20;34.50;;;;;;5005070;28;20042;-47
2022/12/16 01:47:15;;;;;;;6.28;1.08;;;16.10;34.50;;;;;;5005385;28;20038;-45
2022/12/16 01:49:47;;;;;;;0.95;0.70;;;16.20;34.60;;;;;;5005026;28;20042;-46
2022/12/16 01:52:19;;;;;;;1.75;1.10;;;16.10;34.50;;;;;;5005148;28;20081;-46
2022/12/16 01:54:52;;;;;;;7.95;0.80;;;16.10;34.50;;;;;;5005130;28;20042;-46
2022/12/16 01:57:26;;;;;;;1.30;1.05;;;16.10;34.50;;;;;;5005086;28;20042;-47
2022/12/16 01:59:55;;;;;;;4.95;0.85;;;16.10;34.50;;;;;;5004641;28;20139;-46
2022/12/16 02:02:24;;;;;;;4.32;1.00;;;16.10;34.50;;;;;;5004999;28;20148;-46
2022/12/16 02:07:36;;;;;;;2.15;0.60;;;16.10;34.60;;;;;;5005004;28;20046;-48
2022/12/16 02:10:04;;;;;;;3.60;0.77;;;16.00;34.50;;;;;;5000207;28;20045;-47
2022/12/16 02:12:38;;;;;;;2.80;1.40;;;16.00;34.60;;;;;;4985289;28;20049;-47
2022/12/16 02:15:18;;;;;;;1.83;0.95;;;16.00;34.60;;;;;;4985298;28;20057;-46
2022/12/16 02:17:56;;;;;;;1.13;0.70;;;16.00;34.60;;;;;;4985743;28;20506;-47
2022/12/16 02:21:02;;;;;;;3.05;1.13;;;16.00;34.70;;;;;;5004103;28;20050;-47
2022/12/16 02:24:07;;;;;;;2.15;1.10;;;16.00;34.70;;;;;;5004752;28;20065;-47
2022/12/16 02:27:06;;;;;;;5.13;1.55;;;16.00;34.70;;;;;;5004859;28;20095;-47
2022/12/16 02:30:03;;;;;;;1.70;1.00;;;16.00;34.70;;;;;;5004242;28;20085;-47
2022/12/16 02:32:45;;;;;;;6.72;2.63;;;15.90;34.70;;;;;;5004522;28;20452;-48
2022/12/16 02:35:19;;;;;;;2.08;1.35;;;15.90;34.70;;;;;;5004646;28;20533;-47
2022/12/16 02:37:56;;;;;;;1.52;1.27;;;15.90;34.80;;;;;;5004715;28;20042;-47
2022/12/16 02:40:27;;;;;;;2.17;1.55;;;15.90;34.80;;;;;;5004738;28;20050;-47
2022/12/16 02:43:00;;;;;;;3.75;1.40;;;15.90;34.80;;;;;;5004261;28;20072;-48
2022/12/16 02:45:30;;;;;;;2.20;1.73;;;15.90;34.80;;;;;;5004458;28;20046;-47
2022/12/16 02:47:59;;;;;;;3.70;1.25;;;15.90;34.80;;;;;;5004594;28;20622;-48
2022/12/16 02:50:32;;;;;;;4.10;2.35;;;15.90;35.40;;;;;;5004461;28;20049;-47
2022/12/16 02:53:01;;;;;;;2.28;1.70;;;15.90;34.80;;;;;;5004613;28;20421;-48
2022/12/16 02:55:35;;;;;;;3.30;1.60;;;15.90;34.80;;;;;;5004360;28;20077;-48
2022/12/16 02:58:10;;;;;;;2.08;1.65;;;15.90;34.80;;;;;;5003958;28;20061;-47
2022/12/16 03:00:45;;;;;;;3.13;2.10;;;15.90;34.80;;;;;;4987529;28;20050;-48
2022/12/16 03:03:19;;;;;;;1.90;0.95;;;15.80;34.80;;;;;;4967480;28;20062;-48
2022/12/16 03:05:49;;;;;;;2.58;1.55;;;15.80;34.80;;;;;;4984730;28;20453;-48
2022/12/16 03:08:22;;;;;;;1.40;1.15;;;15.80;34.80;;;;;;4984770;28;20133;-48
2022/12/16 03:10:53;;;;;;;4.68;1.58;;;15.80;34.80;;;;;;4984613;28;20920;-46
2022/12/16 03:13:22;;;;;;;3.10;1.60;;;15.80;34.90;;;;;;4984288;28;20149;-49
2022/12/16 03:15:53;;;;;;;1.40;0.90;;;15.80;34.80;;;;;;4984824;28;20079;-47
2022/12/16 03:18:23;;;;;;;1.58;1.48;;;15.80;34.90;;;;;;4970078;28;20721;-48
2022/12/16 03:20:55;;;;;;;1.70;1.48;;;15.80;34.90;;;;;;4995557;28;20112;-48
2022/12/16 03:23:27;;;;;;;6.47;2.00;;;15.80;34.90;;;;;;4984577;28;20072;-51
2022/12/16 03:26:01;;;;;;;4.03;2.00;;;15.80;34.90;;;;;;4966943;28;20046;-45
2022/12/16 03:28:39;;;;;;;4.00;1.88;;;15.70;34.90;;;;;;4984570;28;20123;-48
2022/12/16 03:31:16;;;;;;;2.38;1.77;;;15.70;34.90;;;;;;4966816;28;20391;-47
2022/12/16 03:33:49;;;;;;;2.10;1.60;;;15.80;35.00;;;;;;4984799;28;20142;-48
2022/12/16 03:36:21;;;;;;;3.05;1.55;;;15.70;34.90;;;;;;5018403;28;20066;-47
2022/12/16 03:38:50;;;;;;;1.20;1.08;;;15.80;35.00;;;;;;5007493;28;20050;-48
2022/12/16 03:41:19;;;;;;;2.25;1.60;;;15.70;35.00;;;;;;5006902;28;20061;-47
2022/12/16 03:43:47;;;;;;;2.92;1.58;;;15.70;35.00;;;;;;5006014;28;20129;-48
2022/12/16 03:46:16;;;;;;;2.40;0.93;;;15.70;35.00;;;;;;5007252;28;20115;-49
2022/12/16 03:48:50;;;;;;;2.53;1.90;;;15.70;35.00;;;;;;4995372;28;20050;-47
2022/12/16 03:51:17;;;;;;;2.45;1.88;;;15.80;35.00;;;;;;5003510;28;20060;-47
2022/12/16 03:53:44;;;;;;;2.95;1.30;;;15.70;35.00;;;;;;5007233;28;20531;-50
2022/12/16 03:56:12;;;;;;;3.88;2.10;;;15.70;35.00;;;;;;5007040;28;20128;-48
2022/12/16 03:58:39;;;;;;;2.55;1.08;;;15.70;35.00;;;;;;5007134;28;20050;-47
2022/12/16 04:01:08;;;;;;;1.75;1.17;;;15.70;35.00;;;;;;5007046;28;20050;-48
2022/12/16 04:03:35;;;;;;;2.35;1.35;;;15.70;35.00;;;;;;5007021;28;20176;-48
2022/12/16 04:06:06;;;;;;;3.25;1.30;;;15.70;35.00;;;;;;5006908;28;20118;-48
2022/12/16 04:08:33;;;;;;;3.75;1.52;;;15.70;35.00;;;;;;5006841;28;20054;-50
2022/12/16 04:25:01;;;;;;;4.35;1.83;;;15.70;35.80;;;;;;4926282;29;20051;-47
2022/12/16 04:27:28;;;;;;;4.85;1.88;;;15.70;35.10;;;;;;4910964;29;20052;-48
